sensor_id;sensor_type;location;lat;lon;timestamp;P1;durP1;ratioP1;P2;durP2;ratioP2
11183;SDS011;5648;43.628;22.684;2022-08-01T00:01:03;4.38;;;1.48;;
11183;SDS011;5648;43.628;22.684;2022-08-01T00:03:29;1.70;;;1.30;;
11183;SDS011;5648;43.628;22.684;2022-08-01T00:05:54;3.78;;;1.23;;
11183;SDS011;5648;43.628;22.684;2022-08-01T00:08:20;4.93;;;1.70;;
11183;SDS011;5648;43.628;22.684;2022-08-01T00:10:45;1.73;;;1.48;;
11183;SDS011;5648;43.628;22.684;2022-08-01T00:13:11;1.15;;;1.10;;
11183;SDS011;5648;43.628;22.684;2022-08-01T00:15:36;1.30;;;1.20;;
11183;SDS011;5648;43.628;22.684;2022-08-01T00:18:02;4.63;;;1.73;;
11183;SDS011;5648;43.628;22.684;2022-08-01T00:20:28;1.40;;;1.20;;
11183;SDS011;5648;43.628;22.684;2022-08-01T00:22:53;3.10;;;1.40;;
11183;SDS011;5648;43.628;22.684;2022-08-01T00:25:19;1.10;;;1.10;;
11183;SDS011;5648;43.628;22.684;2022-08-01T00:27:44;2.47;;;1.60;;
11183;SDS011;5648;43.628;22.684;2022-08-01T00:30:09;8.70;;;1.50;;
11183;SDS011;5648;43.628;22.684;2022-08-01T00:32:35;2.42;;;1.38;;
11183;SDS011;5648;43.628;22.684;2022-08-01T00:35:00;1.30;;;1.20;;
11183;SDS011;5648;43.628;22.684;2022-08-01T00:37:26;2.38;;;1.25;;
11183;SDS011;5648;43.628;22.684;2022-08-01T00:39:51;2.03;;;1.55;;
11183;SDS011;5648;43.628;22.684;2022-08-01T00:42:17;1.00;;;1.00;;
11183;SDS011;5648;43.628;22.684;2022-08-01T00:44:42;4.38;;;1.40;;
11183;SDS011;5648;43.628;22.684;2022-08-01T00:47:08;1.30;;;1.00;;
11183;SDS011;5648;43.628;22.684;2022-08-01T00:49:34;1.85;;;1.40;;
11183;SDS011;5648;43.628;22.684;2022-08-01T00:51:59;3.53;;;1.30;;
11183;SDS011;5648;43.628;22.684;2022-08-01T00:54:26;3.92;;;1.20;;
11183;SDS011;5648;43.628;22.684;2022-08-01T00:56:52;1.60;;;1.48;;
11183;SDS011;5648;43.628;22.684;2022-08-01T00:59:18;1.38;;;1.27;;
11183;SDS011;5648;43.628;22.684;2022-08-01T01:01:46;3.97;;;1.33;;
11183;SDS011;5648;43.628;22.684;2022-08-01T01:04:12;2.63;;;1.30;;
11183;SDS011;5648;43.628;22.684;2022-08-01T01:12:13;2.53;;;1.30;;
11183;SDS011;5648;43.628;22.684;2022-08-01T01:17:27;1.45;;;1.25;;
11183;SDS011;5648;43.628;22.684;2022-08-01T01:20:02;5.97;;;1.40;;
11183;SDS011;5648;43.628;22.684;2022-08-01T01:22:36;1.25;;;1.15;;
11183;SDS011;5648;43.628;22.684;2022-08-01T01:28:20;2.05;;;1.50;;
11183;SDS011;5648;43.628;22.684;2022-08-01T01:30:49;1.60;;;1.40;;
11183;SDS011;5648;43.628;22.684;2022-08-01T01:33:16;1.50;;;1.40;;
11183;SDS011;5648;43.628;22.684;2022-08-01T01:35:47;3.13;;;1.40;;
11183;SDS011;5648;43.628;22.684;2022-08-01T01:38:18;2.03;;;1.23;;
11183;SDS011;5648;43.628;22.684;2022-08-01T01:40:47;2.67;;;1.08;;
11183;SDS011;5648;43.628;22.684;2022-08-01T01:43:15;2.25;;;1.20;;
11183;SDS011;5648;43.628;22.684;2022-08-01T01:45:42;1.58;;;1.48;;
11183;SDS011;5648;43.628;22.684;2022-08-01T01:48:09;1.23;;;1.13;;
11183;SDS011;5648;43.628;22.684;2022-08-01T01:50:37;1.35;;;1.25;;
11183;SDS011;5648;43.628;22.684;2022-08-01T01:53:04;1.30;;;1.20;;
11183;SDS011;5648;43.628;22.684;2022-08-01T01:55:31;1.60;;;1.50;;
11183;SDS011;5648;43.628;22.684;2022-08-01T01:57:57;1.40;;;1.30;;
11183;SDS011;5648;43.628;22.684;2022-08-01T02:00:25;1.83;;;1.52;;
11183;SDS011;5648;43.628;22.684;2022-08-01T02:02:54;1.55;;;1.33;;
11183;SDS011;5648;43.628;22.684;2022-08-01T02:05:21;4.03;;;1.58;;
11183;SDS011;5648;43.628;22.684;2022-08-01T02:07:49;1.40;;;1.30;;
11183;SDS011;5648;43.628;22.684;2022-08-01T02:10:17;1.88;;;1.60;;
11183;SDS011;5648;43.628;22.684;2022-08-01T02:12:44;3.13;;;1.25;;
11183;SDS011;5648;43.628;22.684;2022-08-01T02:15:13;1.40;;;1.30;;
11183;SDS011;5648;43.628;22.684;2022-08-01T02:17:42;3.55;;;1.55;;
11183;SDS011;5648;43.628;22.684;2022-08-01T02:20:10;2.72;;;1.45;;
11183;SDS011;5648;43.628;22.684;2022-08-01T02:22:58;4.05;;;1.45;;
11183;SDS011;5648;43.628;22.684;2022-08-01T02:25:27;1.73;;;1.17;;
11183;SDS011;5648;43.628;22.684;2022-08-01T02:27:59;2.08;;;1.33;;
11183;SDS011;5648;43.628;22.684;2022-08-01T02:30:33;1.50;;;1.38;;
11183;SDS011;5648;43.628;22.684;2022-08-01T02:33:04;1.58;;;1.17;;
11183;SDS011;5648;43.628;22.684;2022-08-01T02:35:37;2.50;;;1.20;;
11183;SDS011;5648;43.628;22.684;2022-08-01T02:38:06;1.20;;;1.10;;
11183;SDS011;5648;43.628;22.684;2022-08-01T02:40:34;3.17;;;1.20;;
11183;SDS011;5648;43.628;22.684;2022-08-01T02:43:05;4.15;;;1.25;;
11183;SDS011;5648;43.628;22.684;2022-08-01T02:45:31;4.75;;;1.55;;
11183;SDS011;5648;43.628;22.684;2022-08-01T02:48:10;2.78;;;1.52;;
11183;SDS011;5648;43.628;22.684;2022-08-01T02:50:38;1.67;;;1.30;;
11183;SDS011;5648;43.628;22.684;2022-08-01T02:53:07;5.07;;;1.23;;
11183;SDS011;5648;43.628;22.684;2022-08-01T02:55:35;3.25;;;1.70;;
11183;SDS011;5648;43.628;22.684;2022-08-01T02:58:04;4.30;;;1.40;;
11183;SDS011;5648;43.628;22.684;2022-08-01T03:00:31;2.17;;;1.20;;
11183;SDS011;5648;43.628;22.684;2022-08-01T03:02:58;3.15;;;1.30;;
11183;SDS011;5648;43.628;22.684;2022-08-01T03:05:25;1.48;;;1.20;;
11183;SDS011;5648;43.628;22.684;2022-08-01T03:07:52;1.50;;;1.40;;
11183;SDS011;5648;43.628;22.684;2022-08-01T03:10:20;4.53;;;1.23;;
11183;SDS011;5648;43.628;22.684;2022-08-01T03:12:46;2.35;;;1.20;;
11183;SDS011;5648;43.628;22.684;2022-08-01T03:15:15;2.17;;;1.50;;
11183;SDS011;5648;43.628;22.684;2022-08-01T03:17:43;1.30;;;1.20;;
11183;SDS011;5648;43.628;22.684;2022-08-01T03:20:12;3.40;;;1.42;;
11183;SDS011;5648;43.628;22.684;2022-08-01T03:22:40;1.30;;;1.20;;
11183;SDS011;5648;43.628;22.684;2022-08-01T03:25:08;2.25;;;1.30;;
11183;SDS011;5648;43.628;22.684;2022-08-01T03:27:36;1.38;;;1.10;;
11183;SDS011;5648;43.628;22.684;2022-08-01T03:30:03;2.10;;;1.30;;
11183;SDS011;5648;43.628;22.684;2022-08-01T03:32:30;2.30;;;1.55;;
11183;SDS011;5648;43.628;22.684;2022-08-01T03:34:56;2.40;;;1.30;;
11183;SDS011;5648;43.628;22.684;2022-08-01T03:37:36;2.03;;;1.60;;
11183;SDS011;5648;43.628;22.684;2022-08-01T03:42:53;1.23;;;1.17;;
11183;SDS011;5648;43.628;22.684;2022-08-01T03:45:27;1.38;;;1.20;;
11183;SDS011;5648;43.628;22.684;2022-08-01T03:47:59;1.42;;;1.25;;
11183;SDS011;5648;43.628;22.684;2022-08-01T03:50:27;1.05;;;1.05;;
11183;SDS011;5648;43.628;22.684;2022-08-01T03:52:58;1.75;;;1.20;;
11183;SDS011;5648;43.628;22.684;2022-08-01T03:55:26;1.98;;;1.50;;
11183;SDS011;5648;43.628;22.684;2022-08-01T03:57:53;1.42;;;1.25;;
11183;SDS011;5648;43.628;22.684;2022-08-01T04:00:20;1.73;;;1.40;;
11183;SDS011;5648;43.628;22.684;2022-08-01T04:02:46;3.83;;;1.45;;
11183;SDS011;5648;43.628;22.684;2022-08-01T04:05:14;4.97;;;1.70;;
11183;SDS011;5648;43.628;22.684;2022-08-01T04:07:41;4.55;;;2.67;;
11183;SDS011;5648;43.628;22.684;2022-08-01T04:10:11;2.33;;;1.75;;
11183;SDS011;5648;43.628;22.684;2022-08-01T04:12:37;4.22;;;1.58;;
11183;SDS011;5648;43.628;22.684;2022-08-01T04:15:03;1.88;;;1.33;;
11183;SDS011;5648;43.628;22.684;2022-08-01T04:17:30;4.35;;;1.60;;
11183;SDS011;5648;43.628;22.684;2022-08-01T04:19:55;2.63;;;1.60;;
11183;SDS011;5648;43.628;22.684;2022-08-01T04:22:21;1.92;;;1.50;;
11183;SDS011;5648;43.628;22.684;2022-08-01T04:24:47;2.70;;;1.30;;
11183;SDS011;5648;43.628;22.684;2022-08-01T04:27:15;1.77;;;1.67;;
11183;SDS011;5648;43.628;22.684;2022-08-01T04:29:47;2.95;;;1.60;;
11183;SDS011;5648;43.628;22.684;2022-08-01T04:32:15;2.65;;;1.80;;
11183;SDS011;5648;43.628;22.684;2022-08-01T04:34:44;3.22;;;1.33;;
11183;SDS011;5648;43.628;22.684;2022-08-01T04:37:11;1.90;;;1.35;;
11183;SDS011;5648;43.628;22.684;2022-08-01T04:39:41;1.70;;;1.60;;
11183;SDS011;5648;43.628;22.684;2022-08-01T04:42:08;2.10;;;1.88;;
11183;SDS011;5648;43.628;22.684;2022-08-01T04:44:35;2.65;;;1.60;;
11183;SDS011;5648;43.628;22.684;2022-08-01T04:47:02;2.72;;;1.90;;
11183;SDS011;5648;43.628;22.684;2022-08-01T04:49:36;2.50;;;1.55;;
11183;SDS011;5648;43.628;22.684;2022-08-01T04:52:02;5.20;;;1.40;;
11183;SDS011;5648;43.628;22.684;2022-08-01T04:54:28;2.45;;;1.60;;
11183;SDS011;5648;43.628;22.684;2022-08-01T04:56:58;3.92;;;1.85;;
11183;SDS011;5648;43.628;22.684;2022-08-01T04:59:27;4.63;;;1.70;;
11183;SDS011;5648;43.628;22.684;2022-08-01T05:02:06;2.88;;;1.65;;
11183;SDS011;5648;43.628;22.684;2022-08-01T05:04:32;2.22;;;1.60;;
11183;SDS011;5648;43.628;22.684;2022-08-01T05:06:58;2.47;;;1.73;;
11183;SDS011;5648;43.628;22.684;2022-08-01T05:09:24;1.50;;;1.40;;
11183;SDS011;5648;43.628;22.684;2022-08-01T05:11:50;2.55;;;1.77;;
11183;SDS011;5648;43.628;22.684;2022-08-01T05:14:16;2.72;;;1.73;;
11183;SDS011;5648;43.628;22.684;2022-08-01T05:16:41;2.72;;;1.65;;
11183;SDS011;5648;43.628;22.684;2022-08-01T05:19:07;1.40;;;1.30;;
11183;SDS011;5648;43.628;22.684;2022-08-01T05:21:33;3.17;;;1.30;;
11183;SDS011;5648;43.628;22.684;2022-08-01T05:23:59;6.18;;;1.75;;
11183;SDS011;5648;43.628;22.684;2022-08-01T05:26:24;1.45;;;1.35;;
11183;SDS011;5648;43.628;22.684;2022-08-01T05:28:50;6.80;;;2.17;;
11183;SDS011;5648;43.628;22.684;2022-08-01T05:31:15;4.78;;;1.90;;
11183;SDS011;5648;43.628;22.684;2022-08-01T05:33:41;2.42;;;1.65;;
11183;SDS011;5648;43.628;22.684;2022-08-01T05:36:06;3.47;;;1.60;;
11183;SDS011;5648;43.628;22.684;2022-08-01T05:38:32;2.10;;;1.35;;
11183;SDS011;5648;43.628;22.684;2022-08-01T05:40:57;1.85;;;1.45;;
11183;SDS011;5648;43.628;22.684;2022-08-01T05:43:23;7.28;;;2.97;;
11183;SDS011;5648;43.628;22.684;2022-08-01T05:45:48;2.70;;;1.98;;
11183;SDS011;5648;43.628;22.684;2022-08-01T05:48:14;1.95;;;1.75;;
11183;SDS011;5648;43.628;22.684;2022-08-01T05:50:39;1.90;;;1.67;;
11183;SDS011;5648;43.628;22.684;2022-08-01T05:53:05;3.15;;;1.63;;
11183;SDS011;5648;43.628;22.684;2022-08-01T05:55:30;4.60;;;1.45;;
11183;SDS011;5648;43.628;22.684;2022-08-01T05:57:56;3.13;;;1.70;;
11183;SDS011;5648;43.628;22.684;2022-08-01T06:00:21;3.17;;;1.92;;
11183;SDS011;5648;43.628;22.684;2022-08-01T06:02:47;2.03;;;1.48;;
11183;SDS011;5648;43.628;22.684;2022-08-01T06:05:12;1.90;;;1.60;;
11183;SDS011;5648;43.628;22.684;2022-08-01T06:07:38;4.93;;;1.77;;
11183;SDS011;5648;43.628;22.684;2022-08-01T06:10:05;1.83;;;1.70;;
11183;SDS011;5648;43.628;22.684;2022-08-01T06:12:34;2.03;;;1.70;;
11183;SDS011;5648;43.628;22.684;2022-08-01T06:15:00;2.15;;;1.92;;
11183;SDS011;5648;43.628;22.684;2022-08-01T06:17:26;1.90;;;1.80;;
11183;SDS011;5648;43.628;22.684;2022-08-01T06:19:51;1.80;;;1.70;;
11183;SDS011;5648;43.628;22.684;2022-08-01T06:22:17;7.45;;;1.77;;
11183;SDS011;5648;43.628;22.684;2022-08-01T06:24:42;3.60;;;1.40;;
11183;SDS011;5648;43.628;22.684;2022-08-01T06:27:07;1.85;;;1.75;;
11183;SDS011;5648;43.628;22.684;2022-08-01T06:29:33;2.80;;;1.80;;
11183;SDS011;5648;43.628;22.684;2022-08-01T06:31:59;2.70;;;1.50;;
11183;SDS011;5648;43.628;22.684;2022-08-01T06:34:25;2.60;;;1.60;;
11183;SDS011;5648;43.628;22.684;2022-08-01T06:36:51;3.28;;;1.90;;
11183;SDS011;5648;43.628;22.684;2022-08-01T06:39:16;4.25;;;1.60;;
11183;SDS011;5648;43.628;22.684;2022-08-01T06:41:41;2.88;;;1.67;;
11183;SDS011;5648;43.628;22.684;2022-08-01T06:44:07;2.55;;;1.75;;
11183;SDS011;5648;43.628;22.684;2022-08-01T06:46:33;7.78;;;1.77;;
11183;SDS011;5648;43.628;22.684;2022-08-01T06:48:59;2.95;;;1.55;;
11183;SDS011;5648;43.628;22.684;2022-08-01T06:51:25;2.67;;;1.70;;
11183;SDS011;5648;43.628;22.684;2022-08-01T06:53:51;4.25;;;1.95;;
11183;SDS011;5648;43.628;22.684;2022-08-01T06:56:16;4.07;;;1.92;;
11183;SDS011;5648;43.628;22.684;2022-08-01T06:58:41;2.40;;;1.40;;
11183;SDS011;5648;43.628;22.684;2022-08-01T07:01:07;2.15;;;1.50;;
11183;SDS011;5648;43.628;22.684;2022-08-01T07:03:33;3.60;;;2.03;;
11183;SDS011;5648;43.628;22.684;2022-08-01T07:05:59;9.95;;;2.17;;
11183;SDS011;5648;43.628;22.684;2022-08-01T07:08:24;5.07;;;1.67;;
11183;SDS011;5648;43.628;22.684;2022-08-01T07:10:50;2.05;;;1.55;;
11183;SDS011;5648;43.628;22.684;2022-08-01T07:13:15;2.35;;;1.58;;
11183;SDS011;5648;43.628;22.684;2022-08-01T07:15:45;2.00;;;1.48;;
11183;SDS011;5648;43.628;22.684;2022-08-01T07:18:11;1.80;;;1.70;;
11183;SDS011;5648;43.628;22.684;2022-08-01T07:20:37;3.55;;;1.40;;
11183;SDS011;5648;43.628;22.684;2022-08-01T07:23:03;3.50;;;1.70;;
11183;SDS011;5648;43.628;22.684;2022-08-01T07:25:28;3.70;;;1.60;;
11183;SDS011;5648;43.628;22.684;2022-08-01T07:27:54;1.40;;;1.30;;
11183;SDS011;5648;43.628;22.684;2022-08-01T07:30:20;17.95;;;2.03;;
11183;SDS011;5648;43.628;22.684;2022-08-01T07:32:45;1.92;;;1.50;;
11183;SDS011;5648;43.628;22.684;2022-08-01T07:35:11;2.13;;;1.60;;
11183;SDS011;5648;43.628;22.684;2022-08-01T07:37:36;4.80;;;1.90;;
11183;SDS011;5648;43.628;22.684;2022-08-01T07:40:02;4.55;;;1.63;;
11183;SDS011;5648;43.628;22.684;2022-08-01T07:42:30;2.17;;;1.70;;
11183;SDS011;5648;43.628;22.684;2022-08-01T07:44:55;2.22;;;1.70;;
11183;SDS011;5648;43.628;22.684;2022-08-01T07:47:24;4.75;;;1.80;;
11183;SDS011;5648;43.628;22.684;2022-08-01T07:49:50;1.55;;;1.42;;
11183;SDS011;5648;43.628;22.684;2022-08-01T07:52:16;3.15;;;1.42;;
11183;SDS011;5648;43.628;22.684;2022-08-01T07:54:41;2.88;;;1.42;;
11183;SDS011;5648;43.628;22.684;2022-08-01T07:57:07;3.17;;;1.50;;
11183;SDS011;5648;43.628;22.684;2022-08-01T07:59:33;2.08;;;1.73;;
11183;SDS011;5648;43.628;22.684;2022-08-01T08:01:59;3.17;;;1.83;;
11183;SDS011;5648;43.628;22.684;2022-08-01T08:04:25;3.95;;;1.45;;
11183;SDS011;5648;43.628;22.684;2022-08-01T08:06:51;1.75;;;1.65;;
11183;SDS011;5648;43.628;22.684;2022-08-01T08:09:18;1.58;;;1.48;;
11183;SDS011;5648;43.628;22.684;2022-08-01T08:11:44;1.60;;;1.40;;
11183;SDS011;5648;43.628;22.684;2022-08-01T08:14:10;1.60;;;1.50;;
11183;SDS011;5648;43.628;22.684;2022-08-01T08:16:36;1.73;;;1.60;;
11183;SDS011;5648;43.628;22.684;2022-08-01T08:19:02;3.60;;;1.77;;
11183;SDS011;5648;43.628;22.684;2022-08-01T08:21:27;1.90;;;1.48;;
11183;SDS011;5648;43.628;22.684;2022-08-01T08:23:53;1.40;;;1.30;;
11183;SDS011;5648;43.628;22.684;2022-08-01T08:26:37;2.17;;;1.60;;
11183;SDS011;5648;43.628;22.684;2022-08-01T08:29:03;2.35;;;1.40;;
11183;SDS011;5648;43.628;22.684;2022-08-01T08:31:28;1.33;;;1.30;;
11183;SDS011;5648;43.628;22.684;2022-08-01T08:33:54;1.77;;;1.67;;
11183;SDS011;5648;43.628;22.684;2022-08-01T08:36:19;1.58;;;1.48;;
11183;SDS011;5648;43.628;22.684;2022-08-01T08:38:45;3.78;;;1.63;;
11183;SDS011;5648;43.628;22.684;2022-08-01T08:41:10;3.30;;;1.80;;
11183;SDS011;5648;43.628;22.684;2022-08-01T08:43:37;2.60;;;1.30;;
11183;SDS011;5648;43.628;22.684;2022-08-01T08:46:02;4.88;;;1.58;;
11183;SDS011;5648;43.628;22.684;2022-08-01T08:48:29;1.90;;;1.50;;
11183;SDS011;5648;43.628;22.684;2022-08-01T08:50:56;3.90;;;1.60;;
11183;SDS011;5648;43.628;22.684;2022-08-01T08:53:23;1.73;;;1.40;;
11183;SDS011;5648;43.628;22.684;2022-08-01T08:55:48;1.80;;;1.42;;
11183;SDS011;5648;43.628;22.684;2022-08-01T08:58:15;3.80;;;1.70;;
11183;SDS011;5648;43.628;22.684;2022-08-01T09:00:44;3.03;;;1.50;;
11183;SDS011;5648;43.628;22.684;2022-08-01T09:03:10;1.70;;;1.60;;
11183;SDS011;5648;43.628;22.684;2022-08-01T09:05:37;2.30;;;1.52;;
11183;SDS011;5648;43.628;22.684;2022-08-01T09:08:05;5.80;;;1.70;;
11183;SDS011;5648;43.628;22.684;2022-08-01T09:10:32;4.38;;;1.80;;
11183;SDS011;5648;43.628;22.684;2022-08-01T09:13:08;1.70;;;1.60;;
11183;SDS011;5648;43.628;22.684;2022-08-01T09:18:08;2.08;;;1.85;;
11183;SDS011;5648;43.628;22.684;2022-08-01T09:23:45;2.15;;;1.50;;
11183;SDS011;5648;43.628;22.684;2022-08-01T09:26:14;1.83;;;1.67;;
11183;SDS011;5648;43.628;22.684;2022-08-01T09:28:42;1.92;;;1.58;;
11183;SDS011;5648;43.628;22.684;2022-08-01T09:31:09;1.83;;;1.30;;
11183;SDS011;5648;43.628;22.684;2022-08-01T09:33:46;3.15;;;1.67;;
11183;SDS011;5648;43.628;22.684;2022-08-01T09:36:20;6.25;;;1.52;;
11183;SDS011;5648;43.628;22.684;2022-08-01T09:38:47;3.03;;;1.52;;
11183;SDS011;5648;43.628;22.684;2022-08-01T09:41:14;2.33;;;1.45;;
11183;SDS011;5648;43.628;22.684;2022-08-01T09:43:39;1.60;;;1.50;;
11183;SDS011;5648;43.628;22.684;2022-08-01T09:46:13;2.70;;;1.35;;
11183;SDS011;5648;43.628;22.684;2022-08-01T09:48:54;1.63;;;1.52;;
11183;SDS011;5648;43.628;22.684;2022-08-01T09:51:34;1.75;;;1.40;;
11183;SDS011;5648;43.628;22.684;2022-08-01T09:54:02;1.40;;;1.30;;
11183;SDS011;5648;43.628;22.684;2022-08-01T09:56:41;6.28;;;1.50;;
11183;SDS011;5648;43.628;22.684;2022-08-01T09:59:08;1.50;;;1.40;;
11183;SDS011;5648;43.628;22.684;2022-08-01T10:06:48;1.77;;;1.40;;
11183;SDS011;5648;43.628;22.684;2022-08-01T10:09:27;1.70;;;1.60;;
11183;SDS011;5648;43.628;22.684;2022-08-01T10:11:54;3.58;;;1.60;;
11183;SDS011;5648;43.628;22.684;2022-08-01T10:14:22;4.20;;;2.97;;
11183;SDS011;5648;43.628;22.684;2022-08-01T10:16:49;1.15;;;1.15;;
11183;SDS011;5648;43.628;22.684;2022-08-01T10:19:18;3.70;;;1.10;;
11183;SDS011;5648;43.628;22.684;2022-08-01T10:21:46;1.10;;;1.00;;
11183;SDS011;5648;43.628;22.684;2022-08-01T10:24:15;0.80;;;0.80;;
11183;SDS011;5648;43.628;22.684;2022-08-01T10:26:42;0.93;;;0.90;;
11183;SDS011;5648;43.628;22.684;2022-08-01T10:29:08;2.22;;;0.73;;
11183;SDS011;5648;43.628;22.684;2022-08-01T10:31:34;0.70;;;0.70;;
11183;SDS011;5648;43.628;22.684;2022-08-01T10:34:02;2.83;;;1.02;;
11183;SDS011;5648;43.628;22.684;2022-08-01T10:36:29;0.60;;;0.60;;
11183;SDS011;5648;43.628;22.684;2022-08-01T10:38:56;0.57;;;0.57;;
11183;SDS011;5648;43.628;22.684;2022-08-01T10:41:22;0.50;;;0.50;;
11183;SDS011;5648;43.628;22.684;2022-08-01T10:43:49;0.98;;;0.75;;
11183;SDS011;5648;43.628;22.684;2022-08-01T10:46:17;0.50;;;0.50;;
11183;SDS011;5648;43.628;22.684;2022-08-01T10:51:47;0.70;;;0.70;;
11183;SDS011;5648;43.628;22.684;2022-08-01T10:54:13;1.92;;;0.90;;
11183;SDS011;5648;43.628;22.684;2022-08-01T10:56:43;1.95;;;0.80;;
11183;SDS011;5648;43.628;22.684;2022-08-01T10:59:09;1.15;;;1.08;;
11183;SDS011;5648;43.628;22.684;2022-08-01T11:01:34;1.20;;;1.08;;
11183;SDS011;5648;43.628;22.684;2022-08-01T11:04:02;0.93;;;0.93;;
11183;SDS011;5648;43.628;22.684;2022-08-01T11:09:37;1.90;;;1.00;;
11183;SDS011;5648;43.628;22.684;2022-08-01T11:12:14;3.28;;;0.95;;
11183;SDS011;5648;43.628;22.684;2022-08-01T11:20:13;1.48;;;0.90;;
11183;SDS011;5648;43.628;22.684;2022-08-01T11:26:11;1.65;;;0.70;;
11183;SDS011;5648;43.628;22.684;2022-08-01T11:30:39;0.70;;;0.70;;
11183;SDS011;5648;43.628;22.684;2022-08-01T11:33:11;1.95;;;0.80;;
11183;SDS011;5648;43.628;22.684;2022-08-01T11:35:45;0.73;;;0.73;;
11183;SDS011;5648;43.628;22.684;2022-08-01T11:38:36;1.65;;;0.98;;
11183;SDS011;5648;43.628;22.684;2022-08-01T11:41:28;1.17;;;0.80;;
11183;SDS011;5648;43.628;22.684;2022-08-01T11:51:59;0.95;;;0.90;;
11183;SDS011;5648;43.628;22.684;2022-08-01T11:54:36;2.83;;;0.70;;
11183;SDS011;5648;43.628;22.684;2022-08-01T11:57:28;0.82;;;0.80;;
11183;SDS011;5648;43.628;22.684;2022-08-01T12:00:01;0.77;;;0.77;;
11183;SDS011;5648;43.628;22.684;2022-08-01T12:02:35;0.80;;;0.80;;
11183;SDS011;5648;43.628;22.684;2022-08-01T12:07:37;1.48;;;0.90;;
11183;SDS011;5648;43.628;22.684;2022-08-01T12:10:05;1.20;;;1.05;;
11183;SDS011;5648;43.628;22.684;2022-08-01T12:12:34;1.08;;;0.90;;
11183;SDS011;5648;43.628;22.684;2022-08-01T12:15:02;1.85;;;0.85;;
11183;SDS011;5648;43.628;22.684;2022-08-01T12:20:06;3.03;;;0.93;;
11183;SDS011;5648;43.628;22.684;2022-08-01T12:22:34;1.48;;;1.10;;
11183;SDS011;5648;43.628;22.684;2022-08-01T12:25:07;1.20;;;0.93;;
11183;SDS011;5648;43.628;22.684;2022-08-01T12:27:34;1.08;;;1.00;;
11183;SDS011;5648;43.628;22.684;2022-08-01T12:30:01;0.80;;;0.80;;
11183;SDS011;5648;43.628;22.684;2022-08-01T12:32:33;1.15;;;1.13;;
11183;SDS011;5648;43.628;22.684;2022-08-01T12:35:20;0.95;;;0.80;;
11183;SDS011;5648;43.628;22.684;2022-08-01T12:37:55;2.75;;;1.20;;
11183;SDS011;5648;43.628;22.684;2022-08-01T12:40:29;1.00;;;1.00;;
11183;SDS011;5648;43.628;22.684;2022-08-01T12:43:00;1.48;;;0.90;;
11183;SDS011;5648;43.628;22.684;2022-08-01T12:45:28;2.17;;;0.90;;
11183;SDS011;5648;43.628;22.684;2022-08-01T12:47:57;2.05;;;1.20;;
11183;SDS011;5648;43.628;22.684;2022-08-01T12:50:25;1.58;;;1.30;;
11183;SDS011;5648;43.628;22.684;2022-08-01T12:52:53;2.55;;;1.40;;
11183;SDS011;5648;43.628;22.684;2022-08-01T12:55:20;1.25;;;1.15;;
11183;SDS011;5648;43.628;22.684;2022-08-01T12:57:48;3.28;;;1.02;;
11183;SDS011;5648;43.628;22.684;2022-08-01T13:00:24;4.13;;;1.27;;
11183;SDS011;5648;43.628;22.684;2022-08-01T13:05:52;1.10;;;1.10;;
11183;SDS011;5648;43.628;22.684;2022-08-01T13:08:20;1.20;;;1.10;;
11183;SDS011;5648;43.628;22.684;2022-08-01T13:10:50;7.93;;;1.40;;
11183;SDS011;5648;43.628;22.684;2022-08-01T13:13:24;1.00;;;1.00;;
11183;SDS011;5648;43.628;22.684;2022-08-01T13:16:02;1.17;;;1.10;;
11183;SDS011;5648;43.628;22.684;2022-08-01T13:18:30;1.50;;;1.38;;
11183;SDS011;5648;43.628;22.684;2022-08-01T13:23:32;2.13;;;1.40;;
11183;SDS011;5648;43.628;22.684;2022-08-01T13:25:58;1.38;;;1.25;;
11183;SDS011;5648;43.628;22.684;2022-08-01T13:28:24;0.93;;;0.93;;
11183;SDS011;5648;43.628;22.684;2022-08-01T13:30:51;1.17;;;1.10;;
11183;SDS011;5648;43.628;22.684;2022-08-01T13:33:17;1.20;;;1.10;;
11183;SDS011;5648;43.628;22.684;2022-08-01T13:35:42;1.45;;;1.30;;
11183;SDS011;5648;43.628;22.684;2022-08-01T13:38:07;3.40;;;1.83;;
11183;SDS011;5648;43.628;22.684;2022-08-01T13:40:33;2.38;;;1.23;;
11183;SDS011;5648;43.628;22.684;2022-08-01T13:42:58;1.40;;;1.30;;
11183;SDS011;5648;43.628;22.684;2022-08-01T13:45:24;1.00;;;1.00;;
11183;SDS011;5648;43.628;22.684;2022-08-01T13:47:49;2.42;;;1.10;;
11183;SDS011;5648;43.628;22.684;2022-08-01T13:50:15;1.30;;;1.25;;
11183;SDS011;5648;43.628;22.684;2022-08-01T13:52:40;1.17;;;1.08;;
11183;SDS011;5648;43.628;22.684;2022-08-01T13:55:06;1.60;;;1.13;;
11183;SDS011;5648;43.628;22.684;2022-08-01T13:57:32;1.30;;;1.23;;
11183;SDS011;5648;43.628;22.684;2022-08-01T13:59:57;3.38;;;1.33;;
11183;SDS011;5648;43.628;22.684;2022-08-01T14:02:25;1.10;;;1.10;;
11183;SDS011;5648;43.628;22.684;2022-08-01T14:04:51;1.67;;;1.33;;
11183;SDS011;5648;43.628;22.684;2022-08-01T14:07:17;1.20;;;1.05;;
11183;SDS011;5648;43.628;22.684;2022-08-01T14:09:43;1.20;;;1.20;;
11183;SDS011;5648;43.628;22.684;2022-08-01T14:12:09;1.10;;;1.10;;
11183;SDS011;5648;43.628;22.684;2022-08-01T14:14:34;1.23;;;1.10;;
11183;SDS011;5648;43.628;22.684;2022-08-01T14:17:00;3.42;;;1.45;;
11183;SDS011;5648;43.628;22.684;2022-08-01T14:19:27;1.58;;;1.48;;
11183;SDS011;5648;43.628;22.684;2022-08-01T14:21:53;1.42;;;1.33;;
11183;SDS011;5648;43.628;22.684;2022-08-01T14:24:18;2.35;;;1.55;;
11183;SDS011;5648;43.628;22.684;2022-08-01T14:26:44;2.25;;;1.33;;
11183;SDS011;5648;43.628;22.684;2022-08-01T14:29:10;1.38;;;1.27;;
11183;SDS011;5648;43.628;22.684;2022-08-01T14:31:35;1.40;;;1.30;;
11183;SDS011;5648;43.628;22.684;2022-08-01T14:34:01;1.38;;;1.33;;
11183;SDS011;5648;43.628;22.684;2022-08-01T14:36:26;4.55;;;1.52;;
11183;SDS011;5648;43.628;22.684;2022-08-01T14:38:52;2.95;;;1.55;;
11183;SDS011;5648;43.628;22.684;2022-08-01T14:41:18;2.75;;;1.42;;
11183;SDS011;5648;43.628;22.684;2022-08-01T14:43:43;1.45;;;1.35;;
11183;SDS011;5648;43.628;22.684;2022-08-01T14:46:09;1.73;;;1.17;;
11183;SDS011;5648;43.628;22.684;2022-08-01T14:48:36;3.55;;;1.60;;
11183;SDS011;5648;43.628;22.684;2022-08-01T14:51:02;2.15;;;1.58;;
11183;SDS011;5648;43.628;22.684;2022-08-01T14:53:27;1.23;;;1.05;;
11183;SDS011;5648;43.628;22.684;2022-08-01T14:55:53;1.67;;;1.48;;
11183;SDS011;5648;43.628;22.684;2022-08-01T14:58:19;2.75;;;1.00;;
11183;SDS011;5648;43.628;22.684;2022-08-01T15:00:44;0.98;;;0.90;;
11183;SDS011;5648;43.628;22.684;2022-08-01T15:03:10;1.83;;;1.13;;
11183;SDS011;5648;43.628;22.684;2022-08-01T15:05:35;0.98;;;0.98;;
11183;SDS011;5648;43.628;22.684;2022-08-01T15:08:01;1.25;;;1.15;;
11183;SDS011;5648;43.628;22.684;2022-08-01T15:10:27;1.00;;;0.90;;
11183;SDS011;5648;43.628;22.684;2022-08-01T15:12:53;1.90;;;1.50;;
11183;SDS011;5648;43.628;22.684;2022-08-01T15:15:18;1.55;;;0.90;;
11183;SDS011;5648;43.628;22.684;2022-08-01T15:17:44;0.82;;;0.82;;
11183;SDS011;5648;43.628;22.684;2022-08-01T15:20:10;1.10;;;1.00;;
11183;SDS011;5648;43.628;22.684;2022-08-01T15:22:35;0.80;;;0.80;;
11183;SDS011;5648;43.628;22.684;2022-08-01T15:25:01;2.10;;;0.95;;
11183;SDS011;5648;43.628;22.684;2022-08-01T15:27:27;1.15;;;0.85;;
11183;SDS011;5648;43.628;22.684;2022-08-01T15:29:54;0.80;;;0.80;;
11183;SDS011;5648;43.628;22.684;2022-08-01T15:32:20;1.33;;;1.00;;
11183;SDS011;5648;43.628;22.684;2022-08-01T15:34:46;0.82;;;0.73;;
11183;SDS011;5648;43.628;22.684;2022-08-01T15:37:12;2.20;;;0.90;;
11183;SDS011;5648;43.628;22.684;2022-08-01T15:39:38;1.70;;;0.75;;
11183;SDS011;5648;43.628;22.684;2022-08-01T15:42:05;1.48;;;1.17;;
11183;SDS011;5648;43.628;22.684;2022-08-01T15:44:33;5.95;;;1.45;;
11183;SDS011;5648;43.628;22.684;2022-08-01T15:46:59;2.65;;;1.20;;
11183;SDS011;5648;43.628;22.684;2022-08-01T15:49:25;1.98;;;1.67;;
11183;SDS011;5648;43.628;22.684;2022-08-01T15:51:51;1.27;;;1.17;;